Terminal Aerodrome Forecast
Issued by NWS

Home | Current Version | Previous Version | Text Only | Print | Product List | Glossary On
Versions: 1 2 3 4 5 6 7 8 9 10 11 12 13 14 15
057
FTUS43 KJKL 172339
TAFSME
TAF
KSME 172339Z 1800/1824 VRB03KT P6SM SCT015 OVC020
     FM180100 VRB03KT 6SM -DZ BR SCT008 OVC015
     FM180600 VRB03KT 6SM -DZ BR SCT003 OVC008
     FM181000 VRB03KT 1SM -DZ BR SCT001 OVC003
     FM181600 VRB03KT 6SM -DZ BR OVC008
     FM181900 VRB05KT P6SM OVC010=

USA.gov is the U.S. government's official web portal to all federal, state and local government web resources and services.